Stormwatcher's Retreat Logo




                  Temp     Hi    Low   Out    Dew  Wind  Wind   Wind    Hi    Hi   Wind   Heat    THW   THSW                Rain  Solar   Solar Hi Solar   UV    UV    Hi     Heat    Cool    In     In    In     In     In   In Air          Wind  Wind    ISS   Arc.
  Date    Time     Out   Temp   Temp   Hum    Pt. Speed   Dir    Run Speed   Dir  Chill  Index  Index  Index   Bar    Rain  Rate   Rad.  Energy    Rad.  Index  Dose   UV     D-D     D-D    Temp   Hum    Dew   Heat    EMC Density     ET   Samp   Tx   Recept  Int.
------------------------------------------------------------------------------------------------------------------------------------------------------------------------------------------------------------------------------------------------------------------------
11/11/18 12:10a   44.3   44.3   44.1    73   36.2  13.0     E   2.17  22.0   ESE   37.4   43.9   37.0   34.6  30.260  0.00  0.00     0     0.00      0     0.0  0.00   0.0   0.144   0.000   67.3    49   47.5   65.8   9.10  .0753    0.000   151    5     72.9   10 
11/11/18 12:20a   44.2   44.3   44.2    73   36.1  12.0     E   2.00  23.0   ESE   37.6   43.8   37.2   34.7  30.265  0.00  0.00     0     0.00      0     0.0  0.00   0.0   0.144   0.000   67.2    49   47.4   65.7   9.11  .0754    0.000   210    5    100.0   10 
11/11/18 12:30a   44.1   44.2   44.1    72   35.6  12.0     E   2.00  18.0     E   37.5   43.6   37.0   34.5  30.271  0.00  0.00     0     0.00      0     0.0  0.00   0.0   0.145   0.000   67.1    49   47.3   65.6   9.11  .0754    0.000   212    5    100.0   10 
11/11/18 12:40a   44.1   44.1   44.1    72   35.6  11.0     E   1.83  24.0   ENE   37.9   43.6   37.4   34.9  30.270  0.00  0.00     0     0.00      0     0.0  0.00   0.0   0.145   0.000   67.1    49   47.3   65.6   9.11  .0754    0.000   213    5    100.0   10 
11/11/18 12:50a   44.2   44.2   44.1    71   35.4  12.0     E   2.00  21.0     E   37.6   43.7   37.1   34.6  30.266  0.00  0.00     0     0.00      0     0.0  0.00   0.0   0.144   0.000   67.0    49   47.2   65.5   9.11  .0754    0.000   213    5    100.0   10 
11/11/18  1:00a   45.0   45.0   44.2    70   35.8  13.0   ENE   2.17  25.0     E   38.2   44.5   37.7   35.3  30.271  0.00  0.00     0     0.00      0     0.0  0.00   0.0   0.139   0.000   66.9    49   47.1   65.4   9.11  .0754    0.002   212    5    100.0   10 
11/11/18  1:10a   46.2   46.2   45.0    66   35.5  13.0   ENE   2.17  24.0   ENE   39.5   45.5   38.8   36.4  30.278  0.00  0.00     0     0.00      0     0.0  0.00   0.0   0.131   0.000   66.8    49   47.0   65.3   9.11  .0755    0.000   212    5    100.0   10 
11/11/18  1:20a   47.0   47.0   46.2    62   34.6  10.0   ENE   1.67  18.0    NE   41.8   46.2   41.0   38.4  30.278  0.00  0.00     0     0.00      0     0.0  0.00   0.0   0.125   0.000   66.8    49   47.0   65.3   9.11  .0755    0.000   212    5    100.0   10 
11/11/18  1:30a   47.3   47.3   47.0    60   34.1  11.0     E   1.83  18.0   ENE   41.7   46.5   40.9   38.4  30.279  0.00  0.00     0     0.00      0     0.0  0.00   0.0   0.123   0.000   66.7    49   46.9   65.1   9.12  .0755    0.000   214    5    100.0   10 
11/11/18  1:40a   47.4   47.5   47.3    59   33.8  11.0     E   1.83  19.0   ENE   41.8   46.6   41.0   38.4  30.282  0.00  0.00     0     0.00      0     0.0  0.00   0.0   0.122   0.000   66.6    49   46.8   65.0   9.12  .0755    0.000   212    5    100.0   10 
11/11/18  1:50a   47.5   47.5   47.3    58   33.4  10.0     E   1.67  16.0   ESE   42.4   46.6   41.5   38.8  30.278  0.00  0.00     0     0.00      0     0.0  0.00   0.0   0.122   0.000   66.5    49   46.7   64.9   9.12  .0755    0.000   210    5    100.0   10 
11/11/18  2:00a   47.6   47.7   47.4    57   33.1  11.0     E   1.83  17.0     E   42.0   46.7   41.1   38.5  30.277  0.00  0.00     0     0.00      0     0.0  0.00   0.0   0.121   0.000   66.5    49   46.7   64.9   9.12  .0755    0.003   214    5    100.0   10 
11/11/18  2:10a   47.5   47.6   47.4    57   33.0  11.0     E   1.83  18.0     E   41.9   46.6   41.0   38.4  30.280  0.00  0.00     0     0.00      0     0.0  0.00   0.0   0.122   0.000   66.4    49   46.7   64.8   9.12  .0755    0.000   211    5    100.0   10 
11/11/18  2:20a   47.8   47.8   47.5    56   32.9  11.0     E   1.83  18.0   ESE   42.3   46.8   41.3   38.7  30.274  0.00  0.00     0     0.00      0     0.0  0.00   0.0   0.119   0.000   66.3    49   46.6   64.7   9.12  .0755    0.000   212    5    100.0   10 
11/11/18  2:30a   47.7   47.9   47.7    56   32.8  12.0     E   2.00  22.0   ENE   41.7   46.7   40.7   38.2  30.270  0.00  0.00     0     0.00      0     0.0  0.00   0.0   0.120   0.000   66.3    49   46.6   64.7   9.12  .0755    0.000   214    5    100.0   10 
11/11/18  2:40a   47.0   47.6   47.0    58   33.0  14.0   ENE   2.33  23.0    NE   40.1   46.1   39.2   36.8  30.263  0.00  0.00     0     0.00      0     0.0  0.00   0.0   0.125   0.000   66.2    49   46.5   64.5   9.13  .0755    0.000   212    5    100.0   10 
11/11/18  2:50a   47.0   47.1   47.0    58   33.0  15.0   ENE   2.50  25.0   ENE   39.8   46.1   38.9   36.6  30.262  0.00  0.00     0     0.00      0     0.0  0.00   0.0   0.125   0.000   66.1    49   46.4   64.4   9.13  .0755    0.000   212    5    100.0   10 
11/11/18  3:00a   46.9   47.0   46.9    58   32.9  15.0   ENE   2.50  28.0   ENE   39.7   46.0   38.8   36.5  30.258  0.00  0.00     0     0.00      0     0.0  0.00   0.0   0.126   0.000   66.1    49   46.4   64.4   9.13  .0755    0.004   210    5    100.0   10 
11/11/18  3:10a   46.2   46.9   46.2    59   32.7  13.0   ENE   2.17  24.0   ENE   39.5   45.4   38.7   36.2  30.255  0.00  0.00     0     0.00      0     0.0  0.00   0.0   0.131   0.000   66.0    49   46.3   64.3   9.13  .0755    0.000   211    5    100.0   10 
11/11/18  3:20a   45.7   46.2   45.7    61   33.0  12.0   ENE   2.00  24.0   ENE   39.4   44.9   38.6   36.1  30.254  0.00  0.00     0     0.00      0     0.0  0.00   0.0   0.134   0.000   65.9    48   45.6   64.1   8.93  .0756    0.000   210    5    100.0   10 
11/11/18  3:30a   45.5   45.7   45.5    61   32.8  10.0     E   1.67  20.0   ENE   40.1   44.7   39.3   36.6  30.251  0.00  0.00     0     0.00      0     0.0  0.00   0.0   0.135   0.000   65.8    48   45.6   64.0   8.93  .0756    0.000   212    5    100.0   10 
11/11/18  3:40a   45.1   45.5   45.1    62   32.8   8.0     E   1.33  15.0     E   40.7   44.3   39.9   37.0  30.253  0.00  0.00     0     0.00      0     0.0  0.00   0.0   0.138   0.000   65.8    48   45.6   64.0   8.93  .0756    0.000   210    5    100.0   10 
11/11/18  3:50a   45.4   45.4   45.1    61   32.7   9.0   ENE   1.50  18.0   ENE   40.5   44.6   39.7   36.9  30.254  0.00  0.00     0     0.00      0     0.0  0.00   0.0   0.136   0.000   65.7    48   45.5   63.9   8.94  .0756    0.000   213    5    100.0   10 
11/11/18  4:00a   45.8   45.8   45.4    60   32.7  10.0     E   1.67  20.0     E   40.4   45.0   39.6   36.9  30.257  0.00  0.00     0     0.00      0     0.0  0.00   0.0   0.133   0.000   65.7    48   45.5   63.9   8.94  .0756    0.003   213    5    100.0   10 
11/11/18  4:10a   46.5   46.5   45.8    57   32.1  11.0     E   1.83  18.0   ENE   40.8   45.6   39.9   37.3  30.255  0.00  0.00     0     0.00      0     0.0  0.00   0.0   0.128   0.000   65.6    48   45.4   63.8   8.94  .0756    0.000   209    5    100.0   10 
11/11/18  4:20a   46.7   46.7   46.5    57   32.3  12.0     E   2.00  18.0     E   40.5   45.8   39.6   37.1  30.257  0.00  0.00     0     0.00      0     0.0  0.00   0.0   0.127   0.000   65.5    48   45.3   63.7   8.94  .0756    0.000   212    5    100.0   10 
11/11/18  4:30a   46.5   46.7   46.5    57   32.1  11.0     E   1.83  20.0     E   40.8   45.6   39.9   37.3  30.254  0.00  0.00     0     0.00      0     0.0  0.00   0.0   0.128   0.000   65.4    48   45.2   63.5   8.94  .0757    0.000   213    5    100.0   10 
11/11/18  4:40a   46.8   46.8   46.6    56   31.9  13.0     E   2.17  25.0   ENE   40.3   45.8   39.3   36.8  30.254  0.00  0.00     0     0.00      0     0.0  0.00   0.0   0.126   0.000   65.4    48   45.2   63.5   8.94  .0757    0.000   210    5    100.0   10 
11/11/18  4:50a   46.9   46.9   46.8    55   31.6  11.0     E   1.83  21.0   ENE   41.2   45.9   40.2   37.6  30.258  0.00  0.00     0     0.00      0     0.0  0.00   0.0   0.126   0.000   65.3    48   45.1   63.4   8.94  .0757    0.000   211    5    100.0   10 
11/11/18  5:00a   47.1   47.1   46.9    54   31.3  11.0     E   1.83  18.0     E   41.4   46.1   40.4   37.8  30.262  0.00  0.00     0     0.00      0     0.0  0.00   0.0   0.124   0.000   65.3    48   45.1   63.4   8.94  .0757    0.003   214    5    100.0   10 
11/11/18  5:10a   47.0   47.1   47.0    54   31.2  10.0     E   1.67  18.0   ESE   41.8   46.0   40.8   38.1  30.267  0.00  0.00     0     0.00      0     0.0  0.00   0.0   0.125   0.000   65.2    48   45.0   63.3   8.95  .0757    0.000   212    5    100.0   10 
11/11/18  5:20a   47.0   47.0   47.0    54   31.2   9.0   ESE   1.50  18.0   SSE   42.3   46.0   41.3   38.5  30.265  0.00  0.00     0     0.00      0     0.0  0.00   0.0   0.125   0.000   65.1    48   44.9   63.2   8.95  .0757    0.000   212    5    100.0   10 
11/11/18  5:30a   47.2   47.2   47.0    53   30.9   9.0     E   1.50  16.0   ESE   42.5   46.1   41.4   38.5  30.268  0.00  0.00     0     0.00      0     0.0  0.00   0.0   0.124   0.000   65.0    48   44.8   63.1   8.95  .0758    0.000   211    5    100.0   10 
11/11/18  5:40a   47.2   47.2   47.1    52   30.5   8.0     E   1.33  14.0     E   43.1   46.1   42.0   39.0  30.272  0.00  0.00     0     0.00      0     0.0  0.00   0.0   0.124   0.000   65.0    48   44.8   63.1   8.95  .0758    0.000   213    5    100.0   10 
11/11/18  5:50a   47.3   47.3   47.3    52   30.5   6.0     E   1.00  15.0     E   44.5   46.2   43.4   40.2  30.272  0.00  0.00     0     0.00      0     0.0  0.00   0.0   0.123   0.000   65.0    48   44.8   63.1   8.95  .0758    0.000   211    5    100.0   10 
11/11/18  6:00a   47.5   47.6   47.3    51   30.3   9.0     E   1.50  19.0   ESE   42.9   46.3   41.7   38.8  30.270  0.00  0.00     0     0.00      0     0.0  0.00   0.0   0.122   0.000   64.9    48   44.7   63.0   8.95  .0758    0.003   213    5    100.0   10 
11/11/18  6:10a   47.6   47.6   47.5    50   29.9  10.0     E   1.67  17.0     E   42.5   46.4   41.3   38.5  30.270  0.00  0.00     0     0.00      0     0.0  0.00   0.0   0.121   0.000   64.8    48   44.6   62.9   8.96  .0758    0.000   212    5    100.0   10 
11/11/18  6:20a   47.6   47.7   47.6    50   29.9   8.0     E   1.33  20.0   ENE   43.6   46.4   42.4   39.4  30.275  0.00  0.00     0     0.00      0     0.0  0.00   0.0   0.121   0.000   64.8    48   44.6   62.9   8.96  .0758    0.000   212    5    100.0   10 
11/11/18  6:30a   47.7   47.7   47.6    50   30.0  11.0     E   1.83  21.0   ENE   42.1   46.5   40.9   38.2  30.274  0.00  0.00     0     0.00      0     0.0  0.00   0.0   0.120   0.000   64.8    48   44.6   62.9   8.96  .0758    0.000   212    5    100.0   10 
11/11/18  6:40a   47.8   47.8   47.7    49   29.5  11.0     E   1.83  21.0     E   42.3   46.6   41.1   38.4  30.275  0.00  0.00     0     0.00      0     0.0  0.00   0.0   0.119   0.000   64.8    48   44.6   62.9   8.96  .0758    0.000   210    5    100.0   10 
11/11/18  6:50a   48.0   48.0   47.8    48   29.2  13.0     E   2.17  21.0     E   41.6   46.8   40.4   37.9  30.281  0.00  0.00     0     0.00      0     0.0  0.00   0.0   0.118   0.000   64.9    48   44.7   63.0   8.95  .0758    0.000   211    5    100.0   10 
11/11/18  7:00a   48.2   48.2   47.9    47   28.9  11.0     E   1.83  21.0   ENE   42.7   46.9   41.4   38.7  30.283  0.00  0.00     0     0.00      0     0.0  0.00   0.0   0.117   0.000   65.0    48   44.8   63.1   8.95  .0758    0.004   212    5    100.0   10 
11/11/18  7:10a   47.7   48.2   47.7    48   28.9  10.0     E   1.67  18.0   ENE   42.6   46.5   41.4   38.7  30.280  0.00  0.00     5     0.07      7     0.0  0.00   0.0   0.120   0.000   65.1    48   44.9   63.2   8.95  .0758    0.000   208    5    100.0   10 
11/11/18  7:20a   47.3   47.7   47.3    50   29.6  11.0     E   1.83  23.0     E   41.7   46.1   40.5   38.0  30.275  0.00  0.00    10     0.14     12     0.0  0.00   0.0   0.123   0.000   65.2    48   45.0   63.3   8.95  .0757    0.000   212    5    100.0   10 
11/11/18  7:30a   46.4   47.3   46.4    52   29.7  10.0     E   1.67  17.0     E   41.1   45.3   40.0   37.4  30.270  0.00  0.00    13     0.19     14     0.0  0.00   0.0   0.129   0.000   65.4    48   45.2   63.5   8.94  .0757    0.000   211    5    100.0   10 
11/11/18  7:40a   45.5   46.4   45.5    54   29.8  11.0     E   1.83  20.0   ENE   39.6   44.5   38.6   36.2  30.269  0.00  0.00    17     0.24     18     0.0  0.00   0.0   0.135   0.000   65.5    48   45.3   63.7   8.94  .0757    0.000   212    5    100.0   10 
11/11/18  7:50a   45.5   45.6   45.5    55   30.3  12.0     E   2.00  28.0     E   39.2   44.5   38.2   36.0  30.273  0.00  0.00    19     0.27     21     0.0  0.00   0.0   0.135   0.000   65.7    48   45.5   63.9   8.94  .0757    0.000   211    5    100.0   10 
11/11/18  8:00a   45.7   45.7   45.5    54   30.0  13.0     E   2.17  25.0   ESE   39.0   44.7   38.0   35.9  30.270  0.00  0.00    22     0.32     23     0.0  0.00   0.0   0.134   0.000   65.8    48   45.6   64.0   8.93  .0756    0.004   211    5    100.0   10 
11/11/18  8:10a   46.1   46.1   45.7    54   30.4  13.0     E   2.17  20.0     E   39.4   45.1   38.4   36.3  30.266  0.00  0.00    24     0.34     25     0.0  0.00   0.0   0.131   0.000   66.0    48   45.7   64.2   8.93  .0756    0.000   211    5    100.0   10 
11/11/18  8:20a   46.3   46.3   46.1    53   30.1  13.0     E   2.17  23.0     E   39.7   45.2   38.6   37.6  30.262  0.00  0.00    25     0.36     26     0.0  0.00   0.0   0.130   0.000   66.1    48   45.8   64.3   8.93  .0756    0.000   211    5    100.0   10 
11/11/18  8:30a   46.7   46.7   46.3    53   30.5  13.0     E   2.17  25.0     E   40.1   45.6   39.0   40.4  30.256  0.00  0.00   107     1.53    171     0.0  0.00   0.0   0.127   0.000   66.2    48   45.9   64.4   8.93  .0755    0.000   214    5    100.0   10 
11/11/18  8:40a   47.1   47.1   46.7    52   30.4  14.0     E   2.33  29.0     E   40.2   46.0   39.1   42.2  30.255  0.00  0.00   186     2.67    199     0.0  0.00   0.0   0.124   0.000   66.2    48   45.9   64.4   8.93  .0755    0.000   212    5    100.0   10 
11/11/18  8:50a   47.5   47.5   47.1    51   30.3  12.0     E   2.00  20.0     E   41.5   46.3   40.3   44.2  30.253  0.00  0.00   210     3.01    221     0.0  0.00   0.0   0.122   0.000   66.3    48   46.0   64.6   8.92  .0755    0.000   211    5    100.0   10 
11/11/18  9:00a   48.3   48.3   47.5    49   30.0  12.0     E   2.00  22.0   ESE   42.4   47.1   41.2   45.6  30.253  0.00  0.00   235     3.37    248     0.0  0.00   0.0   0.116   0.000   66.4    48   46.1   64.7   8.92  .0755    0.006   210    5    100.0   10 
11/11/18  9:10a   49.0   49.0   48.2    48   30.1  13.0     E   2.17  27.0   ESE   42.7   47.8   41.5   46.3  30.251  0.00  0.00   259     3.71    269     0.0  0.00   0.0   0.111   0.000   66.4    48   46.1   64.7   8.92  .0755    0.000   212    5    100.0   10 
11/11/18  9:20a   49.6   49.6   49.0    46   29.6  13.0     E   2.17  26.0   ESE   43.4   48.3   42.1   47.3  30.247  0.00  0.00   282     4.04    290     0.0  0.00   0.0   0.107   0.000   66.4    48   46.1   64.7   8.92  .0755    0.000   212    5    100.0   10 
11/11/18  9:30a   50.2   50.2   49.6    45   29.7  12.0     E   2.00  22.0   ESE   44.5   48.9   43.2   48.8  30.258  0.00  0.00   303     4.34    313     0.0  0.00   0.0   0.103   0.000   66.4    48   46.1   64.7   8.92  .0755    0.000   211    5    100.0   10 
11/11/18  9:40a   51.2   51.2   50.3    43   29.4   9.0     E   1.50  19.0    SE   47.3   49.6   45.7   52.3  30.267  0.00  0.00   326     4.67    334     0.0  0.00   0.0   0.096   0.000   66.4    48   46.1   64.7   8.92  .0755    0.000   211    5    100.0   10 
11/11/18  9:50a   51.9   51.9   51.2    43   30.1   7.0     E   1.17  13.0     E   49.5   50.1   47.7   55.0  30.272  0.00  0.00   344     4.93    352     0.0  0.00   0.0   0.091   0.000   66.4    48   46.1   64.7   8.92  .0755    0.000   213    5    100.0   10 
11/11/18 10:00a   52.5   52.5   51.9    41   29.5   7.0     E   1.17  18.0   ENE   50.2   50.6   48.3   55.9  30.278  0.00  0.00   361     5.18    369     0.0  0.00   0.0   0.087   0.000   66.4    48   46.1   64.7   8.92  .0755    0.010   212    5    100.0   10 
11/11/18 10:10a   53.2   53.2   52.5    39   28.9   6.0     E   1.00  15.0    NE   51.4   51.0   49.2   57.3  30.280  0.00  0.00   378     5.42    385     0.0  0.00   0.0   0.082   0.000   66.4    48   46.1   64.7   8.92  .0756    0.000   212    5    100.0   10 
11/11/18 10:20a   53.6   53.6   53.2    38   28.6   6.0     E   1.00  14.0     E   51.9   51.3   49.6   57.9  30.285  0.00  0.00   393     5.63    399     0.0  0.00   0.0   0.079   0.000   66.4    48   46.1   64.7   8.92  .0756    0.000   214    5    100.0   10 
11/11/18 10:30a   54.1   54.1   53.6    38   29.0   6.0   ESE   1.00  13.0    SE   52.5   51.8   50.2   58.7  30.283  0.00  0.00   407     5.83    415     0.0  0.00   0.0   0.076   0.000   66.4    48   46.1   64.7   8.92  .0756    0.000   213    5    100.0   10 
11/11/18 10:40a   55.0   55.0   54.1    39   30.5   4.0   ENE   0.67  12.0    SE   54.6   52.6   52.2   60.9  30.279  0.00  0.00   421     6.04    427     0.0  0.00   0.0   0.069   0.000   66.4    48   46.1   64.7   8.92  .0756    0.000   213    5    100.0   10 
11/11/18 10:50a   56.0   56.0   55.0    38   30.7   4.0     E   0.67  13.0    NE   55.8   53.4   53.2   62.0  30.281  0.00  0.00   433     6.21    438     0.0  0.00   0.0   0.063   0.000   66.5    48   46.2   64.8   8.92  .0755    0.000   214    5    100.0   10 
11/11/18 11:00a   56.7   56.7   56.0    42   33.8   4.0     E   0.67  11.0    NE   56.6   54.3   54.2   63.2  30.281  0.00  0.00   443     6.35    448     0.0  0.00   0.0   0.058   0.000   66.5    48   46.2   64.8   8.92  .0755    0.010   213    5    100.0   10 
11/11/18 11:10a   56.5   56.7   56.5    37   30.5   3.0   ENE   0.50   9.0    NE   56.5   53.8   53.8   62.8  30.272  0.00  0.00   453     6.49    455     0.0  0.00   0.0   0.059   0.000   66.6    49   46.8   65.0   9.12  .0755    0.000   213    5    100.0   10 
11/11/18 11:20a   57.1   57.1   56.4    36   30.4   4.0   ENE   0.67  13.0   ENE   57.1   54.3   54.3   63.4  30.271  0.00  0.00   461     6.61    464     0.0  0.00   0.0   0.055   0.000   66.7    49   46.9   65.1   9.12  .0755    0.000   213    5    100.0   10 
11/11/18 11:30a   58.0   58.0   57.1    35   30.5   4.0   ENE   0.67  13.0   ENE   58.0   55.0   55.0   64.1  30.268  0.00  0.00   468     6.71    471     0.0  0.00   0.0   0.049   0.000   66.7    49   46.9   65.1   9.12  .0755    0.000   211    5    100.0   10 
11/11/18 11:40a   58.9   58.9   58.0    35   31.3   4.0     E   0.67  13.0   NNE   58.9   55.8   55.8   65.0  30.264  0.00  0.00   475     6.81    478     0.0  0.00   0.0   0.042   0.000   66.9    49   47.1   65.4   9.11  .0754    0.000   213    5    100.0   10 
11/11/18 11:50a   59.4   59.5   58.9    32   29.5   7.0   ENE   1.17  16.0   ENE   58.5   56.1   55.2   64.2  30.262  0.00  0.00   481     6.90    483     0.0  0.00   0.0   0.039   0.000   66.9    49   47.1   65.4   9.11  .0754    0.000   214    5    100.0   10 
11/11/18 12:00p   58.3   59.4   58.3    36   31.4   5.0     N   0.83  11.0     N   58.0   55.4   55.1   64.4  30.261  0.00  0.00   479     6.87    487     0.0  0.00   0.0   0.047   0.000   67.1    49   47.3   65.6   9.11  .0754    0.012   212    5    100.0   10 
11/11/18 12:10p   59.2   59.3   58.2    35   31.5   2.0   NNE   0.33   4.0   NNW   59.2   56.1   56.1   65.2  30.258  0.00  0.00   464     6.65    485     0.0  0.00   0.0   0.040   0.000   67.1    49   47.3   65.6   9.11  .0754    0.000   212    5    100.0   10 
11/11/18 12:20p   58.4   59.3   58.4    32   28.6   3.0   NNE   0.50   5.0   NNE   58.4   55.2   55.2   64.2  30.258  0.00  0.00   462     6.62    471     0.0  0.00   0.0   0.046   0.000   67.3    49   47.5   65.8   9.10  .0753    0.000   213    5    100.0   10 
11/11/18 12:30p   57.4   58.4   57.1    40   33.3   3.0   WNW   0.50   7.0    NW   57.4   54.9   54.9   64.1  30.255  0.00  0.00   468     6.71    469     0.0  0.00   0.0   0.053   0.000   67.3    49   47.5   65.8   9.10  .0753    0.000   212    5    100.0   10 
11/11/18 12:40p   58.6   58.6   57.4    38   33.0   3.0   SSW   0.50   7.0   WNW   58.6   55.8   55.8   65.0  30.249  0.00  0.00   466     6.68    468     0.0  0.00   0.0   0.044   0.000   67.4    49   47.6   65.9   9.10  .0753    0.000   213    5    100.0   10 
11/11/18 12:50p   59.4   59.5   58.7    33   30.3   3.0   NNE   0.50   7.0   WNW   59.4   56.2   56.2   65.3  30.250  0.00  0.00   461     6.61    466     0.0  0.00   0.0   0.039   0.000   67.5    49   47.7   66.1   9.10  .0753    0.000   213    5    100.0   10 
11/11/18  1:00p   60.0   60.0   59.4    31   29.2   3.0   WNW   0.50   9.0     N   60.0   56.6   56.6   65.6  30.246  0.00  0.00   454     6.51    461     0.0  0.00   0.0   0.035   0.000   67.7    49   47.8   66.3   9.10  .0752    0.011   213    5    100.0   10 
11/11/18  1:10p   60.4   60.4   59.9    31   29.6   3.0   WNW   0.50   8.0   NNW   60.4   56.9   56.9   65.9  30.244  0.00  0.00   455     6.52    459     0.0  0.00   0.0   0.032   0.000   67.7    49   47.8   66.3   9.10  .0752    0.000   213    5    100.0   10 
11/11/18  1:20p   62.4   62.4   60.4    31   31.3   3.0   ENE   0.50  10.0   ENE   62.4   58.8   58.8   67.8  30.242  0.00  0.00   448     6.42    452     0.0  0.00   0.0   0.018   0.000   67.9    49   48.0   66.5   9.09  .0752    0.000   213    5    100.0   10 
11/11/18  1:30p   63.4   63.4   62.4    28   29.7   3.0    NE   0.50   8.0   NNE   63.4   59.4   59.4   67.3  30.244  0.00  0.00   375     5.38    438     0.0  0.00   0.0   0.011   0.000   68.0    49   48.1   66.6   9.09  .0752    0.000   212    5    100.0   10 
11/11/18  1:40p   63.8   63.8   63.3    28   30.0   4.0    NE   0.67   9.0     E   63.8   59.7   59.7   68.3  30.240  0.00  0.00   417     5.98    431     0.0  0.00   0.0   0.008   0.000   68.1    49   48.2   66.7   9.09  .0751    0.000   213    5    100.0   10 
11/11/18  1:50p   64.6   64.6   63.8    26   28.9   3.0   ENE   0.50   8.0     N   64.6   60.2   60.2   68.7  30.236  0.00  0.00   407     5.83    415     0.0  0.00   0.0   0.003   0.000   68.2    49   48.3   66.8   9.09  .0751    0.000   214    5    100.0   10 
11/11/18  2:00p   64.6   64.9   64.5    27   29.8   3.0    NE   0.50   9.0   WNW   64.6   60.4   60.4   68.7  30.229  0.00  0.00   390     5.59    399     0.0  0.00   0.0   0.003   0.000   68.3    49   48.4   66.9   9.08  .0751    0.011   212    5    100.0   10 
11/11/18  2:10p   65.5   65.5   64.6    27   30.6   2.0    SE   0.33   9.0   ENE   65.5   61.3   61.3   69.3  30.231  0.00  0.00   367     5.26    374     0.0  0.00   0.0   0.000   0.003   68.5    49   48.6   67.1   9.08  .0751    0.000   212    5    100.0   10 
11/11/18  2:20p   65.1   65.6   65.1    26   29.3   6.0   ENE   1.00  16.0   ENE   65.1   60.7   60.7   68.6  30.230  0.00  0.00   355     5.09    362     0.0  0.00   0.0   0.000   0.001   68.6    49   48.7   67.1   9.08  .0750    0.000   210    5    100.0   10 
11/11/18  2:30p   65.0   65.1   64.9    27   30.2   4.0   ENE   0.67  13.0   ENE   65.0   60.8   60.8   68.4  30.227  0.00  0.00   334     4.79    345     0.0  0.00   0.0   0.000   0.000   68.7    49   48.8   67.2   9.08  .0750    0.000   211    5    100.0   10 
11/11/18  2:40p   64.8   65.0   64.7    26   29.1   6.0   ENE   1.00  15.0   ENE   64.8   60.4   60.4   67.7  30.234  0.00  0.00   315     4.52    325     0.0  0.00   0.0   0.001   0.000   68.8    49   48.9   67.3   9.07  .0750    0.000   212    5    100.0   10 
11/11/18  2:50p   65.2   65.3   64.8    24   27.5   5.0   ENE   0.83  16.0   ENE   65.2   60.5   60.5   67.3  30.230  0.00  0.00   293     4.20    302     0.0  0.00   0.0   0.000   0.001   68.9    49   48.9   67.4   9.07  .0750    0.000   214    5    100.0   10 
11/11/18  3:00p   65.3   65.3   65.0    25   28.5   2.0    NE   0.33   8.0     E   65.3   60.7   60.7   67.1  30.227  0.00  0.00   268     3.84    276     0.0  0.00   0.0   0.000   0.002   69.0    49   49.0   67.5   9.07  .0750    0.010   211    5    100.0   10 
11/11/18  3:10p   65.6   65.6   65.3    26   29.8   2.0   ENE   0.33   6.0    NE   65.6   61.1   61.1   67.1  30.224  0.00  0.00   250     3.58    258     0.0  0.00   0.0   0.000   0.004   69.2    49   49.2   67.6   9.07  .0749    0.000   213    5    100.0   10 
11/11/18  3:20p   66.1   66.2   65.7    24   28.2   3.0     E   0.50  13.0   NNE   66.1   61.3   61.3   66.7  30.229  0.00  0.00   222     3.18    239     0.0  0.00   0.0   0.000   0.008   69.4    49   49.4   67.8   9.06  .0749    0.000   213    5    100.0   10 
11/11/18  3:30p   64.9   66.1   64.9    25   28.2   4.0   ENE   0.67  10.0    NE   64.9   60.3   60.3   65.5  30.224  0.00  0.00   212     3.04    221     0.0  0.00   0.0   0.001   0.000   69.5    49   49.5   67.9   9.06  .0749    0.000   213    5    100.0   10 
11/11/18  3:40p   63.8   64.9   63.8    25   27.3   3.0   ENE   0.50  11.0   ENE   63.8   59.2   59.2   63.0  30.225  0.00  0.00   166     2.38    183     0.0  0.00   0.0   0.008   0.000   69.6    49   49.6   67.9   9.06  .0748    0.000   209    5    100.0   10 
11/11/18  3:50p   63.1   63.9   63.1    25   26.7   4.0   ENE   0.67  13.0   ESE   63.1   58.6   58.6   62.6  30.223  0.00  0.00   172     2.47    183     0.0  0.00   0.0   0.013   0.000   69.7    49   49.7   68.0   9.06  .0748    0.000   213    5    100.0   10 
11/11/18  4:00p   62.6   63.2   62.6    26   27.2   4.0   ESE   0.67  14.0    SW   62.6   58.3   58.3   61.7  30.231  0.00  0.00   152     2.18    165     0.0  0.00   0.0   0.017   0.000   69.8    49   49.8   68.1   9.05  .0748    0.007   212    5    100.0   10 
11/11/18  4:10p   63.0   63.0   62.5    26   27.5   3.0   ENE   0.50   9.0     E   63.0   58.7   58.7   60.8  30.233  0.00  0.00   113     1.62    134     0.0  0.00   0.0   0.014   0.000   69.9    49   49.9   68.1   9.05  .0748    0.000   214    5    100.0   10 
11/11/18  4:20p   62.1   63.0   62.1    26   26.8   5.0   ENE   0.83  16.0    NE   62.1   57.8   57.8   58.5  30.226  0.00  0.00    75     1.08     90     0.0  0.00   0.0   0.020   0.000   69.9    49   49.9   68.1   9.05  .0748    0.000   212    5    100.0   10 
11/11/18  4:30p   61.3   62.1   61.3    28   27.9   3.0     E   0.50  10.0    NE   61.3   57.4   57.4   57.0  30.228  0.00  0.00    48     0.69     60     0.0  0.00   0.0   0.026   0.000   69.9    49   49.9   68.1   9.05  .0748    0.000   212    5    100.0   10 
11/11/18  4:40p   59.9   61.2   59.9    30   28.4   3.0     E   0.50  10.0     E   59.9   56.4   56.4   55.1  30.223  0.00  0.00    27     0.39     35     0.0  0.00   0.0   0.035   0.000   70.0    49   50.0   68.2   9.05  .0748    0.000   212    5    100.0   10 
11/11/18  4:50p   58.6   59.9   58.6    31   28.0   3.0    NE   0.50  13.0    NE   58.6   55.3   55.3   52.3  30.223  0.00  0.00    14     0.20     18     0.0  0.00   0.0   0.044   0.000   70.0    49   50.0   68.2   9.05  .0748    0.000   213    5    100.0   10 
11/11/18  5:00p   57.7   58.7   57.7    33   28.8   3.0   ENE   0.50  14.0    SE   57.7   54.6   54.6   51.5  30.221  0.00  0.00     9     0.13     11     0.0  0.00   0.0   0.051   0.000   70.0    49   50.0   68.2   9.05  .0748    0.003   212    5    100.0   10 
11/11/18  5:10p   56.9   57.7   56.9    34   28.8   4.0     E   0.67  15.0     E   56.9   53.9   53.9   50.6  30.220  0.00  0.00     1     0.01      5     0.0  0.00   0.0   0.056   0.000   70.0    49   50.0   68.2   9.05  .0748    0.000   213    5    100.0   10 
11/11/18  5:20p   56.3   57.0   56.3    36   29.7   4.0     E   0.67  13.0   ESE   56.2   53.5   53.4   50.1  30.221  0.00  0.00     0     0.00      0     0.0  0.00   0.0   0.060   0.000   69.9    49   49.9   68.1   9.05  .0748    0.000   212    5    100.0   10 
11/11/18  5:30p   55.7   56.3   55.7    37   29.8   7.0     E   1.17  15.0    NE   54.0   53.1   51.4   48.1  30.213  0.00  0.00     0     0.00      0     0.0  0.00   0.0   0.065   0.000   69.9    48   49.3   68.0   8.85  .0748    0.000   213    5    100.0   10 
11/11/18  5:40p   55.3   55.7   55.3    38   30.1   9.0     E   1.50  20.0   ENE   52.2   52.8   49.7   46.8  30.209  0.00  0.00     0     0.00      0     0.0  0.00   0.0   0.067   0.000   69.7    48   49.1   67.9   8.86  .0748    0.000   213    5    100.0   10 
11/11/18  5:50p   54.9   55.3   54.9    39   30.4  12.0     E   2.00  27.0   ENE   49.9   52.5   47.5   44.9  30.199  0.00  0.00     0     0.00      0     0.0  0.00   0.0   0.070   0.000   69.6    47   48.5   67.7   8.76  .0748    0.000   213    5    100.0   10 
11/11/18  6:00p   54.7   54.9   54.7    39   30.2  14.0     E   2.33  25.0     E   48.9   52.4   46.6   44.1  30.189  0.00  0.00     0     0.00      0     0.0  0.00   0.0   0.072   0.000   69.5    47   48.4   67.6   8.76  .0748    0.004   212    5    100.0   10 
11/11/18  6:10p   54.4   54.7   54.4    41   31.2  15.0     E   2.50  26.0   ESE   48.2   52.2   46.0   43.6  30.190  0.00  0.00     0     0.00      0     0.0  0.00   0.0   0.074   0.000   69.4    47   48.3   67.6   8.76  .0748    0.000   211    5    100.0   10 
11/11/18  6:20p   54.2   54.4   54.1    41   31.0  16.0     E   2.67  28.0     E   47.6   52.0   45.4   43.1  30.192  0.00  0.00     0     0.00      0     0.0  0.00   0.0   0.075   0.000   69.3    47   48.2   67.5   8.76  .0749    0.000   212    5    100.0   10 
11/11/18  6:30p   54.2   54.3   54.2    41   31.0  17.0     E   2.83  27.0     E   47.3   52.0   45.1   42.9  30.190  0.00  0.00     0     0.00      0     0.0  0.00   0.0   0.075   0.000   69.3    47   48.2   67.5   8.76  .0748    0.000   213    5    100.0   10 
11/11/18  6:40p   53.9   54.1   53.8    41   30.7  17.0     E   2.83  28.0     E   47.0   51.8   44.9   42.7  30.192  0.00  0.00     0     0.00      0     0.0  0.00   0.0   0.077   0.000   69.2    47   48.1   67.4   8.77  .0749    0.000   212    5    100.0   10 
11/11/18  6:50p   53.7   53.9   53.7    42   31.1  16.0     E   2.67  30.0     E   47.1   51.6   45.0   42.7  30.195  0.00  0.00     0     0.00      0     0.0  0.00   0.0   0.078   0.000   69.1    46   47.4   67.3   8.65  .0749    0.000   212    5    100.0   10 
11/11/18  7:00p   53.6   53.7   53.6    42   31.0  16.0     E   2.67  30.0     E   47.0   51.5   44.9   42.6  30.188  0.00  0.00     0     0.00      0     0.0  0.00   0.0   0.079   0.000   69.0    46   47.4   67.2   8.65  .0749    0.007   213    5    100.0   10 
11/11/18  7:10p   53.8   53.8   53.6    42   31.2  16.0     E   2.67  27.0     E   47.2   51.7   45.1   42.8  30.195  0.00  0.00     0     0.00      0     0.0  0.00   0.0   0.078   0.000   69.0    46   47.4   67.2   8.65  .0749    0.000   213    5    100.0   10 
11/11/18  7:20p   53.6   53.8   53.6    43   31.6  16.0     E   2.67  29.0   ESE   47.0   51.6   45.0   42.7  30.202  0.00  0.00     0     0.00      0     0.0  0.00   0.0   0.079   0.000   68.9    46   47.3   67.1   8.65  .0750    0.000   213    5    100.0   10 
11/11/18  7:30p   53.5   53.6   53.4    43   31.5  15.0     E   2.50  27.0     E   47.2   51.5   45.2   42.8  30.208  0.00  0.00     0     0.00      0     0.0  0.00   0.0   0.080   0.000   68.8    46   47.2   67.0   8.65  .0750    0.000   212    5    100.0   10 
11/11/18  7:40p   53.2   53.5   53.1    43   31.3  15.0     E   2.50  26.0   ESE   46.8   51.2   44.8   42.4  30.209  0.00  0.00     0     0.00      0     0.0  0.00   0.0   0.082   0.000   68.7    46   47.1   66.9   8.65  .0750    0.000   212    5    100.0   10 
11/11/18  7:50p   52.7   53.2   52.7    45   31.9  14.0     E   2.33  25.0     E   46.6   50.9   44.8   42.3  30.209  0.00  0.00     0     0.00      0     0.0  0.00   0.0   0.085   0.000   68.7    46   47.1   66.9   8.65  .0750    0.000   211    5    100.0   10 
11/11/18  8:00p   52.4   52.8   52.4    46   32.2  14.0     E   2.33  25.0     E   46.2   50.7   44.5   42.0  30.207  0.00  0.00     0     0.00      0     0.0  0.00   0.0   0.087   0.000   68.6    46   47.0   66.8   8.65  .0750    0.006   213    5    100.0   10 
11/11/18  8:10p   52.4   52.5   52.4    46   32.2  14.0     E   2.33  24.0   ESE   46.2   50.7   44.5   42.0  30.206  0.00  0.00     0     0.00      0     0.0  0.00   0.0   0.087   0.000   68.6    46   47.0   66.8   8.65  .0750    0.000   209    5    100.0   10 
11/11/18  8:20p   52.7   52.7   52.4    45   31.9  16.0     E   2.67  26.0   ESE   46.0   50.9   44.2   41.9  30.201  0.00  0.00     0     0.00      0     0.0  0.00   0.0   0.085   0.000   68.6    46   47.0   66.8   8.65  .0750    0.000   213    5    100.0   10 
11/11/18  8:30p   52.7   52.8   52.7    45   31.9  14.0     E   2.33  27.0   SSE   46.6   50.9   44.8   42.3  30.208  0.00  0.00     0     0.00      0     0.0  0.00   0.0   0.085   0.000   68.6    46   47.0   66.8   8.65  .0750    0.000   212    5    100.0   10 
11/11/18  8:40p   52.8   52.8   52.7    45   32.0  15.0     E   2.50  26.0     E   46.4   51.0   44.6   42.2  30.209  0.00  0.00     0     0.00      0     0.0  0.00   0.0   0.085   0.000   68.5    46   46.9   66.8   8.65  .0751    0.000   212    5    100.0   10 
11/11/18  8:50p   52.8   52.8   52.7    45   32.0  16.0     E   2.67  24.0   ESE   46.1   51.0   44.3   42.0  30.208  0.00  0.00     0     0.00      0     0.0  0.00   0.0   0.085   0.000   68.5    46   46.9   66.8   8.65  .0750    0.000   213    5    100.0   10 
11/11/18  9:00p   52.8   52.8   52.7    45   32.0  16.0     E   2.67  31.0   ESE   46.1   51.0   44.3   42.0  30.209  0.00  0.00     0     0.00      0     0.0  0.00   0.0   0.085   0.000   68.4    46   46.8   66.7   8.65  .0751    0.006   212    5    100.0   10 
11/11/18  9:10p   52.6   52.8   52.6    45   31.8  16.0     E   2.67  28.0   ESE   45.9   50.8   44.1   41.8  30.213  0.00  0.00     0     0.00      0     0.0  0.00   0.0   0.086   0.000   68.4    46   46.8   66.7   8.65  .0751    0.000   212    5    100.0   10 
11/11/18  9:20p   52.6   52.6   52.5    44   31.3  16.0     E   2.67  29.0   ESE   45.9   50.8   44.1   41.8  30.211  0.00  0.00     0     0.00      0     0.0  0.00   0.0   0.086   0.000   68.3    46   46.7   66.6   8.65  .0751    0.000   213    5    100.0   10 
11/11/18  9:30p   52.8   52.8   52.6    44   31.5  17.0     E   2.83  28.0   ESE   45.8   51.0   44.0   41.8  30.209  0.00  0.00     0     0.00      0     0.0  0.00   0.0   0.085   0.000   68.3    46   46.7   66.6   8.65  .0751    0.000   213    5    100.0   10 
11/11/18  9:40p   52.8   52.8   52.7    44   31.5  17.0     E   2.83  27.0    SE   45.8   51.0   44.0   41.8  30.213  0.00  0.00     0     0.00      0     0.0  0.00   0.0   0.085   0.000   68.2    46   46.6   66.5   8.65  .0751    0.000   211    5    100.0   10 
11/11/18  9:50p   52.8   52.9   52.8    44   31.5  17.0     E   2.83  26.0   SSE   45.8   51.0   44.0   41.8  30.209  0.00  0.00     0     0.00      0     0.0  0.00   0.0   0.085   0.000   68.2    46   46.6   66.5   8.65  .0751    0.000   212    5    100.0   10 
11/11/18 10:00p   52.9   53.0   52.7    42   30.4  17.0   ESE   2.83  28.0   ENE   45.9   50.9   43.9   41.7  30.207  0.00  0.00     0     0.00      0     0.0  0.00   0.0   0.084   0.000   68.1    46   46.5   66.4   8.65  .0751    0.006   210    5    100.0   10 
11/11/18 10:10p   52.9   53.0   52.9    42   30.4  17.0   ESE   2.83  26.0     E   45.9   50.9   43.9   41.7  30.206  0.00  0.00     0     0.00      0     0.0  0.00   0.0   0.084   0.000   68.0    46   46.4   66.3   8.65  .0751    0.000   213    5    100.0   10 
11/11/18 10:20p   52.8   53.0   52.8    42   30.3  17.0     E   2.83  26.0   ESE   45.8   50.9   43.9   41.7  30.211  0.00  0.00     0     0.00      0     0.0  0.00   0.0   0.085   0.000   68.0    46   46.4   66.3   8.65  .0751    0.000   213    5    100.0   10 
11/11/18 10:30p   52.7   52.8   52.7    41   29.6  17.0     E   2.83  28.0   ESE   45.7   50.7   43.7   41.4  30.214  0.00  0.00     0     0.00      0     0.0  0.00   0.0   0.085   0.000   67.9    46   46.3   66.2   8.65  .0752    0.000   211    5    100.0   10 
11/11/18 10:40p   52.7   52.8   52.7    41   29.6  17.0   ESE   2.83  26.0   ESE   45.7   50.7   43.7   41.4  30.209  0.00  0.00     0     0.00      0     0.0  0.00   0.0   0.085   0.000   67.9    46   46.3   66.2   8.65  .0752    0.000   211    5    100.0   10 
11/11/18 10:50p   52.7   52.8   52.7    41   29.6  17.0     E   2.83  30.0   ESE   45.7   50.7   43.7   41.4  30.220  0.00  0.00     0     0.00      0     0.0  0.00   0.0   0.085   0.000   67.8    46   46.3   66.1   8.65  .0752    0.000   211    5    100.0   10 
11/11/18 11:00p   52.6   52.8   52.6    41   29.5  17.0     E   2.83  31.0   ESE   45.6   50.6   43.6   41.3  30.218  0.00  0.00     0     0.00      0     0.0  0.00   0.0   0.086   0.000   67.7    46   46.2   66.0   8.65  .0752    0.007   210    5    100.0   10 
11/11/18 11:10p   52.6   52.6   52.5    40   28.9  17.0     E   2.83  34.0   ESE   45.6   50.6   43.6   41.3  30.221  0.00  0.00     0     0.00      0     0.0  0.00   0.0   0.086   0.000   67.7    45   45.6   65.9   8.50  .0752    0.000   214    5    100.0   10 
11/11/18 11:20p   52.5   52.6   52.5    40   28.8  17.0     E   2.83  28.0     E   45.5   50.5   43.5   41.2  30.215  0.00  0.00     0     0.00      0     0.0  0.00   0.0   0.087   0.000   67.6    45   45.5   65.8   8.50  .0752    0.000   211    5    100.0   10 
11/11/18 11:30p   52.3   52.5   52.3    40   28.7  18.0     E   3.00  27.0    SE   44.9   50.3   42.9   40.6  30.213  0.00  0.00     0     0.00      0     0.0  0.00   0.0   0.088   0.000   67.5    45   45.4   65.6   8.50  .0752    0.000   212    5    100.0   10 
11/11/18 11:40p   52.3   52.3   52.2    39   28.1  17.0   ESE   2.83  29.0   ESE   45.2   50.3   43.2   40.9  30.211  0.00  0.00     0     0.00      0     0.0  0.00   0.0   0.088   0.000   67.5    45   45.4   65.6   8.50  .0752    0.000   214    5    100.0   10 
11/11/18 11:50p   52.1   52.3   52.1    39   27.9  17.0   ESE   2.83  26.0     E   45.0   50.1   43.0   40.7  30.214  0.00  0.00     0     0.00      0     0.0  0.00   0.0   0.090   0.000   67.4    45   45.3   65.5   8.50  .0753    0.000   212    5    100.0   10 
11/12/18 12:00a   52.2   52.2   52.1    38   27.3  17.0     E   2.83  27.0     E   45.1   50.2   43.1   40.8  30.207  0.00  0.00     0     0.00      0     0.0  0.00   0.0   0.089   0.000   67.3    45   45.2   65.4   8.50  .0753    0.007   212    5    100.0   10 
11/12/18 12:10a   52.1   52.2   52.1    38   27.2  18.0     E   3.00  31.0     E   44.7   50.1   42.7   40.4  30.210  0.00  0.00     0     0.00      0     0.0  0.00   0.0   0.090   0.000   67.3    45   45.2   65.4   8.50  .0753    0.000   211    5    100.0   10 
11/12/18 12:20a   52.1   52.2   52.1    37   26.6  18.0     E   3.00  27.0     E   44.7   50.1   42.7   40.4  30.208  0.00  0.00     0     0.00      0     0.0  0.00   0.0   0.090   0.000   67.2    45   45.1   65.3   8.51  .0753    0.000   212    5    100.0   10 
11/12/18 12:30a   52.0   52.1   51.9    37   26.5  17.0     E   2.83  28.0     E   44.9   50.0   42.9   40.6  30.203  0.00  0.00     0     0.00      0     0.0  0.00   0.0   0.090   0.000   67.1    45   45.0   65.2   8.51  .0753    0.000   212    5    100.0   10 
11/12/18 12:40a   52.1   52.1   52.0    37   26.6  19.0   ESE   3.17  34.0     E   44.4   50.1   42.4   40.2  30.205  0.00  0.00     0     0.00      0     0.0  0.00   0.0   0.090   0.000   67.1    45   45.0   65.2   8.51  .0753    0.000   213    5    100.0   10 
11/12/18 12:50a   52.0   52.2   52.0    37   26.5  18.0   ESE   3.00  29.0    SE   44.6   50.0   42.6   40.3  30.200  0.00  0.00     0     0.00      0     0.0  0.00   0.0   0.090   0.000   67.0    45   44.9   65.1   8.51  .0753    0.000   211    5    100.0   10 
11/12/18  1:00a   51.8   52.0   51.8    37   26.3  18.0   ESE   3.00  35.0   SSE   44.4   49.8   42.4   40.1  30.206  0.00  0.00     0     0.00      0     0.0  0.00   0.0   0.092   0.000   66.9    45   44.9   65.0   8.51  .0753    0.007   213    5    100.0   10 
11/12/18  1:10a   51.6   51.8   51.6    37   26.1  18.0     E   3.00  30.0    NE   44.2   49.7   42.3   40.0  30.204  0.00  0.00     0     0.00      0     0.0  0.00   0.0   0.093   0.000   66.9    45   44.9   65.0   8.51  .0753    0.000   213    5    100.0   10 
11/12/18  1:20a   51.4   51.6   51.4    37   26.0  17.0     E   2.83  28.0     E   44.2   49.5   42.3   39.9  30.205  0.00  0.00     0     0.00      0     0.0  0.00   0.0   0.094   0.000   66.8    45   44.8   64.9   8.51  .0753    0.000   212    5    100.0   10 
11/12/18  1:30a   51.2   51.4   51.2    38   26.4  18.0     E   3.00  27.0   ESE   43.7   49.4   41.9   39.6  30.200  0.00  0.00     0     0.00      0     0.0  0.00   0.0   0.096   0.000   66.7    45   44.7   64.7   8.52  .0753    0.000   213    5    100.0   10 
11/12/18  1:40a   51.1   51.2   51.0    38   26.3  17.0     E   2.83  29.0     E   43.8   49.3   42.0   39.7  30.198  0.00  0.00     0     0.00      0     0.0  0.00   0.0   0.097   0.000   66.7    45   44.7   64.7   8.52  .0753    0.000   212    5    100.0   10 
11/12/18  1:50a   51.4   51.4   51.1    36   25.3  17.0     E   2.83  30.0   ESE   44.2   49.5   42.3   39.9  30.203  0.00  0.00     0     0.00      0     0.0  0.00   0.0   0.094   0.000   66.6    44   44.0   64.5   8.35  .0754    0.000   213    5    100.0   10 
11/12/18  2:00a   51.4   51.5   51.4    36   25.3  18.0     E   3.00  28.0     E   43.9   49.5   42.0   39.7  30.200  0.00  0.00     0     0.00      0     0.0  0.00   0.0   0.094   0.000   66.5    44   43.9   64.4   8.35  .0754    0.007   212    5    100.0   10 
11/12/18  2:10a   51.4   51.5   51.4    36   25.3  17.0     E   2.83  31.0   SSE   44.2   49.5   42.3   39.9  30.198  0.00  0.00     0     0.00      0     0.0  0.00   0.0   0.094   0.000   66.4    44   43.8   64.3   8.35  .0754    0.000   212    5    100.0   10 
11/12/18  2:20a   51.4   51.4   51.3    36   25.3  17.0     E   2.83  28.0     E   44.2   49.5   42.3   39.9  30.199  0.00  0.00     0     0.00      0     0.0  0.00   0.0   0.094   0.000   66.4    44   43.8   64.3   8.35  .0754    0.000   210    5    100.0   10 
11/12/18  2:30a   51.7   51.7   51.4    34   24.2  18.0     E   3.00  30.0     E   44.3   49.6   42.2   39.9  30.197  0.00  0.00     0     0.00      0     0.0  0.00   0.0   0.092   0.000   66.3    44   43.7   64.2   8.35  .0754    0.000   214    5    100.0   10 
11/12/18  2:40a   51.8   51.8   51.7    34   24.3  18.0     E   3.00  29.0   ESE   44.4   49.7   42.3   40.0  30.204  0.00  0.00     0     0.00      0     0.0  0.00   0.0   0.092   0.000   66.2    44   43.6   64.0   8.35  .0755    0.000   212    5    100.0   10 
11/12/18  2:50a   51.5   51.8   51.5    34   24.0  17.0   ESE   2.83  28.0   ESE   44.3   49.4   42.2   39.8  30.206  0.00  0.00     0     0.00      0     0.0  0.00   0.0   0.094   0.000   66.2    44   43.6   64.0   8.35  .0755    0.000   212    5    100.0   10 
11/12/18  3:00a   51.4   51.5   51.3    34   23.9  18.0     E   3.00  30.0     E   43.9   49.4   41.9   39.6  30.208  0.00  0.00     0     0.00      0     0.0  0.00   0.0   0.094   0.000   66.1    44   43.5   63.9   8.35  .0755    0.007   213    5    100.0   10 
11/12/18  3:10a   51.4   51.4   51.3    34   23.9  17.0   ESE   2.83  26.0   ESE   44.2   49.4   42.2   39.8  30.215  0.00  0.00     0     0.00      0     0.0  0.00   0.0   0.094   0.000   66.0    44   43.5   63.8   8.35  .0755    0.000   212    5    100.0   10 
11/12/18  3:20a   51.3   51.4   51.3    34   23.8  16.0     E   2.67  26.0   ESE   44.4   49.3   42.4   39.9  30.210  0.00  0.00     0     0.00      0     0.0  0.00   0.0   0.095   0.000   65.9    44   43.4   63.7   8.35  .0755    0.000   212    5    100.0   10 
11/12/18  3:30a   51.1   51.3   51.1    35   24.4  15.0     E   2.50  25.0   ESE   44.4   49.2   42.5   40.0  30.209  0.00  0.00     0     0.00      0     0.0  0.00   0.0   0.097   0.000   65.9    44   43.4   63.7   8.35  .0755    0.000   210    5    100.0   10 
11/12/18  3:40a   51.1   51.1   51.0    34   23.7  16.0     E   2.67  26.0   ESE   44.1   49.1   42.1   39.6  30.209  0.00  0.00     0     0.00      0     0.0  0.00   0.0   0.097   0.000   65.8    44   43.3   63.6   8.35  .0755    0.000   208    5    100.0   10 
11/12/18  3:50a   51.1   51.2   51.0    34   23.7  16.0   ESE   2.67  27.0   SSE   44.1   49.1   42.1   39.6  30.212  0.00  0.00     0     0.00      0     0.0  0.00   0.0   0.097   0.000   65.8    44   43.3   63.6   8.35  .0755    0.000   210    5    100.0   10 
11/12/18  4:00a   51.0   51.1   51.0    34   23.6  15.0     E   2.50  30.0     E   44.3   49.1   42.4   39.9  30.212  0.00  0.00     0     0.00      0     0.0  0.00   0.0   0.097   0.000   65.7    44   43.2   63.5   8.35  .0756    0.007   213    5    100.0   10 
11/12/18  4:10a   50.9   51.1   50.9    34   23.5  15.0   ESE   2.50  25.0     E   44.2   49.0   42.3   39.8  30.214  0.00  0.00     0     0.00      0     0.0  0.00   0.0   0.098   0.000   65.6    44   43.1   63.4   8.35  .0756    0.000   212    5    100.0   10 
11/12/18  4:20a   50.7   50.9   50.7    35   24.0  15.0     E   2.50  24.0     E   44.0   48.9   42.2   39.7  30.211  0.00  0.00     0     0.00      0     0.0  0.00   0.0   0.099   0.000   65.5    44   43.0   63.3   8.35  .0756    0.000   212    5    100.0   10 
11/12/18  4:30a   50.9   51.0   50.7    34   23.5  16.0   ESE   2.67  27.0   ESE   43.9   49.0   42.0   39.5  30.213  0.00  0.00     0     0.00      0     0.0  0.00   0.0   0.098   0.000   65.5    44   43.0   63.3   8.35  .0756    0.000   213    5    100.0   10 
11/12/18  4:40a   50.8   51.0   50.8    34   23.4  15.0   ESE   2.50  26.0     E   44.1   48.9   42.2   39.7  30.218  0.00  0.00     0     0.00      0     0.0  0.00   0.0   0.099   0.000   65.4    44   42.9   63.2   8.35  .0756    0.000   212    5    100.0   10 
11/12/18  4:50a   50.6   50.8   50.6    35   23.9  15.0     E   2.50  25.0     E   43.9   48.8   42.1   39.6  30.219  0.00  0.00     0     0.00      0     0.0  0.00   0.0   0.100   0.000   65.3    44   42.8   63.0   8.35  .0757    0.000   213    5    100.0   10 
11/12/18  5:00a   50.8   50.8   50.6    34   23.4  15.0     E   2.50  26.0     E   44.1   48.9   42.2   39.7  30.225  0.00  0.00     0     0.00      0     0.0  0.00   0.0   0.099   0.000   65.3    44   42.8   63.0   8.35  .0757    0.007   213    5    100.0   10 
11/12/18  5:10a   50.8   50.9   50.7    34   23.4  16.0     E   2.67  28.0   ESE   43.8   48.9   41.9   39.4  30.220  0.00  0.00     0     0.00      0     0.0  0.00   0.0   0.099   0.000   65.2    44   42.7   62.9   8.35  .0757    0.000   211    5    100.0   10 
11/12/18  5:20a   50.4   50.8   50.4    35   23.7  15.0   ESE   2.50  24.0   ESE   43.6   48.6   41.8   39.3  30.226  0.00  0.00     0     0.00      0     0.0  0.00   0.0   0.101   0.000   65.1    44   42.6   62.8   8.35  .0757    0.000   212    5    100.0   10 
11/12/18  5:30a   50.4   50.4   50.3    34   23.1  15.0   ESE   2.50  27.0   ESE   43.6   48.6   41.8   39.3  30.227  0.00  0.00     0     0.00      0     0.0  0.00   0.0   0.101   0.000   65.0    44   42.5   62.7   8.35  .0757    0.000   209    5    100.0   10 
11/12/18  5:40a   50.7   50.7   50.4    34   23.3  15.0     E   2.50  26.0    SE   44.0   48.8   42.1   39.6  30.231  0.00  0.00     0     0.00      0     0.0  0.00   0.0   0.099   0.000   65.0    44   42.5   62.7   8.35  .0757    0.000   212    5    100.0   10 
11/12/18  5:50a   51.2   51.2   50.7    33   23.0  15.0   ESE   2.50  23.0   ESE   44.5   49.2   42.5   40.0  30.235  0.00  0.00     0     0.00      0     0.0  0.00   0.0   0.096   0.000   65.0    44   42.5   62.7   8.35  .0757    0.000   212    5    100.0   10 
11/12/18  6:00a   51.3   51.3   51.1    32   22.4  15.0   ESE   2.50  28.0   ESE   44.7   49.2   42.6   40.0  30.234  0.00  0.00     0     0.00      0     0.0  0.00   0.0   0.095   0.000   64.9    44   42.5   62.6   8.35  .0758    0.007   213    5    100.0   10 
11/12/18  6:10a   51.3   51.4   51.3    32   22.4  13.0   ESE   2.17  22.0     E   45.4   49.2   43.3   40.5  30.236  0.00  0.00     0     0.00      0     0.0  0.00   0.0   0.095   0.000   64.8    44   42.4   62.5   8.36  .0758    0.000   213    5    100.0   10 
11/12/18  6:20a   51.3   51.4   51.3    32   22.4  13.0   ESE   2.17  22.0     E   45.4   49.2   43.3   40.5  30.238  0.00  0.00     0     0.00      0     0.0  0.00   0.0   0.095   0.000   64.9    44   42.5   62.6   8.35  .0758    0.000   210    5    100.0   10 
11/12/18  6:30a   51.2   51.3   51.1    32   22.3  12.0   ESE   2.00  21.0   ESE   45.6   49.1   43.5   40.6  30.244  0.00  0.00     0     0.00      0     0.0  0.00   0.0   0.096   0.000   65.0    43   41.9   62.6   8.25  .0758    0.000   213    5    100.0   10 
11/12/18  6:40a   50.9   51.2   50.9    33   22.8  12.0     E   2.00  21.0   ESE   45.3   48.9   43.3   40.4  30.242  0.00  0.00     0     0.00      0     0.0  0.00   0.0   0.098   0.000   65.2    43   42.1   62.9   8.25  .0757    0.000   212    5    100.0   10 
11/12/18  6:50a   50.6   50.9   50.6    33   22.5  12.0     E   2.00  20.0    SE   45.0   48.7   43.1   40.2  30.248  0.00  0.00     0     0.00      0     0.0  0.00   0.0   0.100   0.000   65.4    43   42.3   63.1   8.25  .0757    0.000   213    5    100.0   10 
11/12/18  7:00a   50.8   50.8   50.6    33   22.7  11.0     E   1.83  20.0    SE   45.7   48.9   43.8   40.8  30.243  0.00  0.00     0     0.00      0     0.0  0.00   0.0   0.099   0.000   65.6    43   42.5   63.3   8.25  .0757    0.006   211    5    100.0   10 
11/12/18  7:10a   50.9   50.9   50.7    33   22.8  13.0     E   2.17  24.0     E   44.9   48.9   42.9   40.2  30.245  0.00  0.00     3     0.04      7     0.0  0.00   0.0   0.098   0.000   65.7    44   43.2   63.5   8.35  .0756    0.000   210    5    100.0   10 
11/12/18  7:20a   50.7   50.9   50.6    33   22.6  13.0   ESE   2.17  21.0   ESE   44.7   48.8   42.8   40.3  30.244  0.00  0.00     9     0.13     11     0.0  0.00   0.0   0.099   0.000   65.9    44   43.4   63.7   8.35  .0756    0.000   213    5    100.0   10 
11/12/18  7:30a   50.9   50.9   50.6    33   22.8  13.0   ESE   2.17  24.0   ESE   44.9   48.9   42.9   40.4  30.246  0.00  0.00    14     0.20     16     0.0  0.00   0.0   0.098   0.000   66.0    44   43.5   63.8   8.35  .0756    0.000   212    5    100.0   10 
11/12/18  7:40a   51.2   51.2   50.8    32   22.3  13.0   ESE   2.17  23.0   ESE   45.2   49.1   43.1   40.7  30.243  0.00  0.00    18     0.26     19     0.0  0.00   0.0   0.096   0.000   66.1    44   43.5   63.9   8.35  .0756    0.000   210    5    100.0   10 
11/12/18  7:50a   51.3   51.3   51.2    32   22.4  13.0   ESE   2.17  27.0   ENE   45.4   49.2   43.3   40.9  30.250  0.00  0.00    20     0.29     21     0.0  0.00   0.0   0.095   0.000   66.3    44   43.7   64.2   8.35  .0756    0.000   211    5    100.0   10 
11/12/18  8:00a   51.5   51.5   51.3    32   22.6  13.0     E   2.17  21.0   ESE   45.6   49.3   43.4   41.1  30.258  0.00  0.00    23     0.33     25     0.0  0.00   0.0   0.094   0.000   66.5    44   43.9   64.4   8.35  .0755    0.006   212    5    100.0   10 
11/12/18  8:10a   51.5   51.6   51.5    33   23.3  13.0     E   2.17  20.0    SE   45.6   49.4   43.5   41.3  30.260  0.00  0.00    25     0.36     26     0.0  0.00   0.0   0.094   0.000   66.5    44   43.9   64.4   8.35  .0756    0.000   212    5    100.0   10 
11/12/18  8:20a   51.6   51.6   51.5    33   23.4  13.0     E   2.17  24.0   ESE   45.7   49.5   43.6   42.5  30.261  0.00  0.00    27     0.39     28     0.0  0.00   0.0   0.093   0.000   66.6    45   44.6   64.6   8.52  .0755    0.000   213    5    100.0   10 
11/12/18  8:30a   51.9   51.9   51.6    33   23.7  13.0     E   2.17  20.0   ESE   46.1   49.7   43.9   44.6  30.264  0.00  0.00    85     1.22    169     0.0  0.00   0.0   0.091   0.000   66.6    45   44.6   64.6   8.52  .0755    0.000   210    5    100.0   10 
11/12/18  8:40a   52.3   52.3   51.9    33   24.0  14.0     E   2.33  23.0   ESE   46.1   50.0   43.8   46.6  30.262  0.00  0.00   180     2.58    197     0.0  0.00   0.0   0.088   0.000   66.5    45   44.5   64.5   8.52  .0755    0.000   211    5    100.0   10 
11/12/18  8:50a   52.9   52.9   52.3    32   23.8  14.0     E   2.33  23.0   ESE   46.8   50.4   44.3   47.8  30.265  0.00  0.00   210     3.01    221     0.0  0.00   0.0   0.084   0.000   66.5    45   44.5   64.5   8.52  .0755    0.000   212    5    100.0   10 
11/12/18  9:00a   53.3   53.3   52.9    32   24.2  12.0     E   2.00  20.0     E   48.1   50.8   45.6   49.7  30.268  0.00  0.00   230     3.30    237     0.0  0.00   0.0   0.081   0.000   66.5    45   44.5   64.5   8.52  .0756    0.009   210    5    100.0   10 
11/12/18  9:10a   53.9   53.9   53.3    32   24.7  13.0     E   2.17  20.0   ENE   48.3   51.2   45.6   50.1  30.267  0.00  0.00   255     3.66    265     0.0  0.00   0.0   0.077   0.000   66.5    45   44.5   64.5   8.52  .0756    0.000   212    5    100.0   10 
11/12/18  9:20a   54.8   54.8   53.9    30   23.9  13.0     E   2.17  24.0    SE   49.4   51.9   46.5   51.4  30.267  0.00  0.00   277     3.97    287     0.0  0.00   0.0   0.071   0.000   66.5    45   44.5   64.5   8.52  .0756    0.000   212    5    100.0   10 
11/12/18  9:30a   55.3   55.3   54.8    30   24.4  13.0     E   2.17  23.0    SE   49.9   52.3   46.9   52.1  30.265  0.00  0.00   298     4.27    308     0.0  0.00   0.0   0.067   0.000   66.5    45   44.5   64.5   8.52  .0755    0.000   213    5    100.0   10 
11/12/18  9:40a   55.9   55.9   55.4    30   24.9  13.0     E   2.17  24.0   ESE   50.6   52.8   47.5   53.0  30.271  0.00  0.00   320     4.59    330     0.0  0.00   0.0   0.063   0.000   66.6    45   44.6   64.6   8.52  .0755    0.000   211    5    100.0   10 
11/12/18  9:50a   56.5   56.5   55.9    29   24.6  11.0     E   1.83  20.0     E   52.3   53.2   49.0   55.0  30.275  0.00  0.00   340     4.87    348     0.0  0.00   0.0   0.059   0.000   66.6    45   44.6   64.6   8.52  .0756    0.000   213    5    100.0   10 
11/12/18 10:00a   57.2   57.2   56.5    29   25.2  11.0   ESE   1.83  19.0     E   53.1   53.9   49.8   56.1  30.279  0.00  0.00   359     5.15    367     0.0  0.00   0.0   0.054   0.000   66.6    45   44.6   64.6   8.52  .0756    0.012   212    5    100.0   10 
11/12/18 10:10a   58.0   58.0   57.3    28   25.0  10.0     E   1.67  19.0     E   54.6   54.5   51.1   58.0  30.281  0.00  0.00   371     5.32    381     0.0  0.00   0.0   0.049   0.000   66.6    45   44.6   64.6   8.52  .0756    0.000   212    5    100.0   10 
11/12/18 10:20a   58.7   58.7   58.0    28   25.6  10.0     E   1.67  20.0   ESE   55.4   55.1   51.8   58.8  30.284  0.00  0.00   392     5.62    403     0.0  0.00   0.0   0.044   0.000   66.6    45   44.6   64.6   8.52  .0756    0.000   213    5    100.0   10 
11/12/18 10:30a   59.4   59.4   58.7    28   26.2  10.0     E   1.67  19.0   ESE   56.3   55.7   52.6   59.9  30.288  0.00  0.00   401     5.75    410     0.0  0.00   0.0   0.039   0.000   66.7    45   44.7   64.7   8.52  .0756    0.000   210    5    100.0   10 
11/12/18 10:40a   60.1   60.1   59.4    27   26.0   9.0   ESE   1.50  17.0     E   57.8   56.2   53.9   61.6  30.287  0.00  0.00   410     5.88    413     0.0  0.00   0.0   0.034   0.000   66.7    45   44.7   64.7   8.52  .0756    0.000   209    5    100.0   10 
11/12/18 10:50a   60.8   60.8   60.1    26   25.7  10.0     E   1.67  18.0   ESE   57.9   56.7   53.8   61.3  30.288  0.00  0.00   425     6.09    452     0.0  0.00   0.0   0.029   0.000   66.8    45   44.8   64.9   8.51  .0756    0.000   212    5    100.0   10 
11/12/18 11:00a   61.3   61.3   60.8    26   26.1  10.0     E   1.67  15.0   ESE   58.5   57.1   54.3   61.9  30.290  0.00  0.00   422     6.05    446     0.0  0.00   0.0   0.026   0.000   66.9    45   44.9   65.0   8.51  .0755    0.014   212    5    100.0   10 
11/12/18 11:10a   61.7   61.7   61.3    26   26.4  10.0   ESE   1.67  19.0   ESE   58.9   57.5   54.7   62.3  30.286  0.00  0.00   430     6.16    450     0.0  0.00   0.0   0.023   0.000   66.9    45   44.9   65.0   8.51  .0755    0.000   211    5    100.0   10 
11/12/18 11:20a   62.3   62.3   61.7    26   26.9   9.0     E   1.50  15.0     E   60.4   58.0   56.1   64.0  30.290  0.00  0.00   444     6.36    459     0.0  0.00   0.0   0.019   0.000   67.0    45   44.9   65.1   8.51  .0755    0.000   214    5    100.0   10 
11/12/18 11:30a   63.1   63.1   62.3    25   26.7   7.0   ESE   1.17  16.0     E   63.0   58.6   58.5   67.2  30.291  0.00  0.00   456     6.54    469     0.0  0.00   0.0   0.013   0.000   67.2    45   45.1   65.3   8.51  .0755    0.000   212    5    100.0   10 
11/12/18 11:40a   63.8   63.8   63.2    25   27.3   7.0   ESE   1.17  16.0     E   63.8   59.2   59.2   68.1  30.294  0.00  0.00   472     6.77    475     0.0  0.00   0.0   0.008   0.000   67.4    45   45.3   65.5   8.50  .0755    0.000   213    5    100.0   10 
11/12/18 11:50a   64.1   64.1   63.8    25   27.5   7.0   ESE   1.17  15.0   SSE   64.1   59.5   59.5   68.4  30.296  0.00  0.00   474     6.79    476     0.0  0.00   0.0   0.006   0.000   67.5    45   45.4   65.6   8.50  .0755    0.000   213    5    100.0   10 
Email: AdamSPAM@StormwatchersRetreat.com (To send me email remove the word 'SPAM' from my email address.)